createdAt,value
2018-07-30T00:00:37.748Z,0.00
2018-07-30T00:01:37.779Z,0.00
2018-07-30T00:02:37.807Z,0.00
2018-07-30T00:03:37.835Z,0.00
2018-07-30T00:04:37.863Z,0.00
2018-07-30T00:05:37.888Z,0.00
2018-07-30T00:06:37.920Z,0.00
2018-07-30T00:07:37.947Z,0.00
2018-07-30T00:08:37.974Z,0.00
2018-07-30T00:09:38.005Z,0.00
2018-07-30T00:10:38.033Z,0.00
2018-07-30T00:11:38.061Z,0.00
2018-07-30T00:12:38.087Z,0.00
2018-07-30T00:13:38.117Z,0.00
2018-07-30T00:14:38.142Z,0.00
2018-07-30T00:15:38.172Z,0.00
2018-07-30T00:16:38.202Z,0.00
2018-07-30T00:17:38.227Z,0.00
2018-07-30T00:18:38.256Z,0.00
2018-07-30T00:19:38.287Z,0.00
2018-07-30T00:20:38.315Z,0.00
2018-07-30T00:21:38.342Z,0.00
2018-07-30T00:22:38.372Z,0.00
2018-07-30T00:23:38.396Z,0.00
2018-07-30T00:24:38.426Z,0.00
2018-07-30T00:25:38.456Z,0.00
2018-07-30T00:26:38.481Z,0.00
2018-07-30T00:27:38.512Z,0.00
2018-07-30T00:28:38.539Z,0.00
2018-07-30T00:29:38.567Z,0.00
2018-07-30T00:30:38.595Z,0.00
2018-07-30T00:31:38.623Z,0.00
2018-07-30T00:32:38.652Z,0.00
2018-07-30T00:33:38.679Z,0.00
2018-07-30T00:34:38.707Z,0.00
2018-07-30T00:35:38.736Z,0.00
2018-07-30T00:36:38.762Z,0.00
2018-07-30T00:37:38.792Z,0.00
2018-07-30T00:38:38.819Z,0.00
2018-07-30T00:39:38.847Z,0.00
2018-07-30T00:40:38.876Z,0.00
2018-07-30T00:41:38.905Z,0.00
2018-07-30T00:42:38.931Z,0.00
2018-07-30T00:43:38.961Z,0.00
2018-07-30T00:44:38.988Z,0.00
2018-07-30T00:45:39.015Z,0.00
2018-07-30T00:46:39.044Z,0.00
2018-07-30T00:47:39.073Z,0.00
2018-07-30T00:48:39.102Z,0.00
2018-07-30T00:49:39.127Z,0.00
2018-07-30T00:50:39.156Z,0.00
2018-07-30T00:51:39.184Z,0.00
2018-07-30T00:52:39.215Z,0.00
2018-07-30T00:53:39.242Z,0.00
2018-07-30T00:54:39.269Z,0.00
2018-07-30T00:55:39.299Z,0.00
2018-07-30T00:56:39.327Z,0.00
2018-07-30T00:57:39.355Z,0.00
2018-07-30T00:58:39.381Z,0.00
2018-07-30T00:59:39.412Z,0.00
2018-07-30T01:00:39.439Z,0.00
2018-07-30T01:01:39.465Z,0.00
2018-07-30T01:02:39.494Z,0.00
2018-07-30T01:03:39.523Z,0.00
2018-07-30T01:04:39.551Z,0.00
2018-07-30T01:05:39.578Z,0.00
2018-07-30T01:06:39.607Z,0.00
2018-07-30T01:07:39.670Z,0.00
2018-07-30T01:08:39.663Z,0.00
2018-07-30T01:09:39.691Z,0.00
2018-07-30T01:10:39.728Z,0.00
2018-07-30T01:11:39.750Z,0.00
2018-07-30T01:12:39.775Z,0.00
2018-07-30T01:13:39.805Z,0.00
2018-07-30T01:14:39.831Z,0.00
2018-07-30T01:15:39.859Z,0.00
2018-07-30T01:16:39.888Z,0.00
2018-07-30T01:17:39.918Z,0.00
2018-07-30T01:18:39.945Z,0.00
2018-07-30T01:19:39.974Z,0.00
2018-07-30T01:20:40.005Z,0.00
2018-07-30T01:21:40.081Z,0.00
2018-07-30T01:22:40.057Z,0.00
2018-07-30T01:23:40.094Z,0.00
2018-07-30T01:24:40.113Z,0.00
2018-07-30T01:25:40.139Z,0.00
2018-07-30T01:26:40.168Z,0.00
2018-07-30T01:27:40.196Z,0.00
2018-07-30T01:28:40.226Z,0.00
2018-07-30T01:29:40.252Z,0.00
2018-07-30T01:30:40.283Z,0.00
2018-07-30T01:31:40.309Z,0.00
2018-07-30T01:32:40.337Z,0.00
2018-07-30T01:33:40.367Z,0.00
2018-07-30T01:34:40.396Z,0.00
2018-07-30T01:35:40.424Z,0.00
2018-07-30T01:36:40.451Z,0.00
2018-07-30T01:37:40.478Z,0.00
2018-07-30T01:38:40.507Z,0.00
2018-07-30T01:39:40.533Z,0.00
2018-07-30T01:40:40.564Z,0.00
2018-07-30T01:41:40.589Z,0.00
2018-07-30T01:42:40.616Z,0.00
2018-07-30T01:43:40.648Z,0.00
2018-07-30T01:44:40.676Z,0.00
2018-07-30T01:45:40.701Z,0.00
2018-07-30T01:46:40.733Z,0.00
2018-07-30T01:47:40.761Z,0.00
2018-07-30T01:48:40.786Z,0.00
2018-07-30T01:49:40.812Z,0.00
2018-07-30T01:50:40.841Z,0.00
2018-07-30T01:51:40.869Z,0.00
2018-07-30T01:52:40.904Z,0.00
2018-07-30T01:53:40.927Z,0.00
2018-07-30T01:54:40.953Z,0.00
2018-07-30T01:55:40.985Z,0.00
2018-07-30T01:56:41.009Z,0.00
2018-07-30T01:57:41.039Z,0.00
2018-07-30T01:58:41.069Z,0.00
2018-07-30T01:59:41.099Z,0.00
2018-07-30T02:00:41.122Z,0.00
2018-07-30T02:01:41.151Z,0.00
2018-07-30T02:02:41.176Z,0.00
2018-07-30T02:03:41.205Z,0.00
2018-07-30T02:04:41.235Z,0.00
2018-07-30T02:05:41.263Z,0.00
2018-07-30T02:06:41.289Z,0.00
2018-07-30T02:07:41.320Z,0.00
2018-07-30T02:08:41.347Z,0.00
2018-07-30T02:09:41.374Z,0.00
2018-07-30T02:10:41.401Z,0.00
2018-07-30T02:11:41.429Z,0.00
2018-07-30T02:12:41.462Z,0.00
2018-07-30T02:13:41.484Z,0.00
2018-07-30T02:14:41.512Z,0.00
2018-07-30T02:15:41.542Z,0.00
2018-07-30T02:16:41.569Z,0.00
2018-07-30T02:17:41.598Z,0.00
2018-07-30T02:18:41.627Z,0.00
2018-07-30T02:19:41.657Z,0.00
2018-07-30T02:20:41.687Z,0.00
2018-07-30T02:21:41.707Z,0.00
2018-07-30T02:22:41.735Z,0.00
2018-07-30T02:23:41.763Z,0.00
2018-07-30T02:24:41.792Z,0.00
2018-07-30T02:25:41.827Z,0.00
2018-07-30T02:26:41.888Z,0.00
2018-07-30T02:27:41.877Z,0.00
2018-07-30T02:28:41.903Z,0.00
2018-07-30T02:29:41.930Z,0.00
2018-07-30T02:30:41.959Z,0.00
2018-07-30T02:31:41.989Z,0.00
2018-07-30T02:32:42.018Z,0.00
2018-07-30T02:33:42.044Z,0.00
2018-07-30T02:34:42.077Z,0.00
2018-07-30T02:35:42.100Z,0.00
2018-07-30T02:36:42.135Z,0.00
2018-07-30T02:37:42.157Z,0.00
2018-07-30T02:38:42.183Z,0.00
2018-07-30T02:39:42.211Z,0.00
2018-07-30T02:40:42.246Z,0.00
2018-07-30T02:41:42.268Z,0.00
2018-07-30T02:42:42.292Z,0.00
2018-07-30T02:43:42.323Z,0.00
2018-07-30T02:44:42.350Z,0.00
2018-07-30T02:45:42.376Z,0.00
2018-07-30T02:46:42.408Z,0.00
2018-07-30T02:47:42.432Z,0.00
2018-07-30T02:48:42.463Z,0.00
2018-07-30T02:49:42.486Z,0.00
2018-07-30T02:50:42.515Z,0.00
2018-07-30T02:51:42.558Z,0.00
2018-07-30T02:52:42.576Z,0.00
2018-07-30T02:53:42.600Z,0.00
2018-07-30T02:54:42.627Z,0.00
2018-07-30T02:55:42.654Z,0.00
2018-07-30T02:56:42.683Z,0.00
2018-07-30T02:57:42.796Z,0.00
2018-07-30T02:58:42.739Z,0.00
2018-07-30T02:59:42.767Z,0.00
2018-07-30T03:00:42.793Z,0.00
2018-07-30T03:01:42.821Z,0.00
2018-07-30T03:02:42.850Z,0.00
2018-07-30T03:03:42.879Z,0.00
2018-07-30T03:04:42.905Z,0.00
2018-07-30T03:05:42.930Z,0.00
2018-07-30T03:06:42.960Z,0.00
2018-07-30T03:07:42.986Z,0.00
2018-07-30T03:08:43.014Z,0.00
2018-07-30T03:09:43.044Z,0.00
2018-07-30T03:10:43.072Z,0.00
2018-07-30T03:11:43.099Z,4.00
2018-07-30T03:12:43.128Z,4.00
2018-07-30T03:13:43.153Z,4.00
2018-07-30T03:14:43.181Z,0.00
2018-07-30T03:15:43.208Z,0.00
2018-07-30T03:16:43.236Z,4.00
2018-07-30T03:17:43.265Z,4.00
2018-07-30T03:18:43.292Z,4.00
2018-07-30T03:19:43.320Z,4.00
2018-07-30T03:20:43.345Z,4.00
2018-07-30T03:21:43.371Z,8.00
2018-07-30T03:22:43.404Z,8.00
2018-07-30T03:23:43.429Z,12.00
2018-07-30T03:24:43.460Z,12.00
2018-07-30T03:25:43.482Z,12.00
2018-07-30T03:26:43.512Z,16.00
2018-07-30T03:27:43.543Z,20.00
2018-07-30T03:28:43.585Z,20.00
2018-07-30T03:29:43.594Z,24.00
2018-07-30T03:30:43.622Z,24.00
2018-07-30T03:31:43.651Z,32.00
2018-07-30T03:32:43.678Z,36.00
2018-07-30T03:33:43.703Z,40.00
2018-07-30T03:34:43.732Z,48.00
2018-07-30T03:35:43.760Z,56.00
2018-07-30T03:36:43.788Z,60.00
2018-07-30T03:37:43.814Z,68.00
2018-07-30T03:38:43.842Z,76.00
2018-07-30T03:39:43.868Z,84.00
2018-07-30T03:40:43.894Z,92.00
2018-07-30T03:41:43.924Z,104.00
2018-07-30T03:42:43.951Z,112.00
2018-07-30T03:43:43.976Z,120.00
2018-07-30T03:44:44.006Z,132.00
2018-07-30T03:45:44.033Z,144.00
2018-07-30T03:46:44.063Z,160.00
2018-07-30T03:47:44.086Z,172.00
2018-07-30T03:48:44.122Z,188.00
2018-07-30T03:49:44.141Z,204.00
2018-07-30T03:50:44.169Z,220.00
2018-07-30T03:51:44.197Z,236.00
2018-07-30T03:52:44.226Z,252.00
2018-07-30T03:53:44.253Z,268.00
2018-07-30T03:54:44.339Z,288.00
2018-07-30T03:55:44.304Z,300.00
2018-07-30T03:56:44.333Z,312.00
2018-07-30T03:57:44.361Z,320.00
2018-07-30T03:58:44.386Z,332.00
2018-07-30T03:59:44.416Z,340.00
2018-07-30T04:00:44.444Z,360.00
2018-07-30T04:01:44.470Z,372.00
2018-07-30T04:02:44.497Z,392.00
2018-07-30T04:03:44.522Z,412.00
2018-07-30T04:04:44.553Z,440.00
2018-07-30T04:05:44.630Z,468.00
2018-07-30T04:06:44.608Z,500.00
2018-07-30T04:07:44.674Z,532.00
2018-07-30T04:08:44.660Z,556.00
2018-07-30T04:09:44.689Z,580.00
2018-07-30T04:10:44.717Z,592.00
2018-07-30T04:11:44.740Z,616.00
2018-07-30T04:12:44.805Z,640.00
2018-07-30T04:13:44.799Z,664.00
2018-07-30T04:14:44.832Z,688.00
2018-07-30T04:15:44.850Z,716.00
2018-07-30T04:16:44.878Z,744.00
2018-07-30T04:17:44.906Z,772.00
2018-07-30T04:18:44.934Z,804.00
2018-07-30T04:19:44.962Z,832.00
2018-07-30T04:20:44.986Z,852.00
2018-07-30T04:21:45.016Z,880.00
2018-07-30T04:22:45.041Z,912.00
2018-07-30T04:23:45.068Z,944.00
2018-07-30T04:24:45.099Z,988.00
2018-07-30T04:25:45.129Z,1032.00
2018-07-30T04:26:45.152Z,1076.00
2018-07-30T04:27:45.180Z,1120.00
2018-07-30T04:28:45.208Z,1164.00
2018-07-30T04:29:45.233Z,1212.00
2018-07-30T04:30:45.303Z,1272.00
2018-07-30T04:31:45.291Z,1332.00
2018-07-30T04:32:45.314Z,1380.00
2018-07-30T04:33:45.340Z,1424.00
2018-07-30T04:34:45.368Z,1464.00
2018-07-30T04:35:45.396Z,1500.00
2018-07-30T04:36:45.426Z,1540.00
2018-07-30T04:37:45.450Z,1568.00
2018-07-30T04:38:45.479Z,1604.00
2018-07-30T04:39:45.507Z,1628.00
2018-07-30T04:40:45.535Z,1680.00
2018-07-30T04:41:45.563Z,1708.00
2018-07-30T04:42:45.587Z,1736.00
2018-07-30T04:43:45.679Z,1776.00
2018-07-30T04:44:45.642Z,1804.00
2018-07-30T04:45:45.668Z,1820.00
2018-07-30T04:46:45.696Z,1824.00
2018-07-30T04:47:45.726Z,1824.00
2018-07-30T04:48:45.755Z,1820.00
2018-07-30T04:49:45.778Z,1820.00
2018-07-30T04:50:45.809Z,1816.00
2018-07-30T04:51:45.841Z,1836.00
2018-07-30T04:52:45.864Z,1868.00
2018-07-30T04:53:45.889Z,1908.00
2018-07-30T04:54:45.919Z,1960.00
2018-07-30T04:55:45.944Z,2000.00
2018-07-30T04:56:45.975Z,2012.00
2018-07-30T04:57:46.003Z,2024.00
2018-07-30T04:58:46.029Z,2056.00
2018-07-30T04:59:46.057Z,2072.00
2018-07-30T05:00:46.085Z,2060.00
2018-07-30T05:01:46.111Z,2044.00
2018-07-30T05:02:46.140Z,2052.00
2018-07-30T05:03:46.185Z,2060.00
2018-07-30T05:04:46.191Z,2080.00
2018-07-30T05:05:46.222Z,2132.00
2018-07-30T05:06:46.246Z,2240.00
2018-07-30T05:07:46.273Z,3124.00
2018-07-30T05:08:46.302Z,3152.00
2018-07-30T05:09:46.330Z,2472.00
2018-07-30T05:10:46.358Z,2628.00
2018-07-30T05:11:46.389Z,2848.00
2018-07-30T05:12:46.414Z,3104.00
2018-07-30T05:13:46.441Z,3392.00
2018-07-30T05:14:46.466Z,3684.00
2018-07-30T05:15:46.495Z,3996.00
2018-07-30T05:16:46.521Z,4168.00
2018-07-30T05:17:46.553Z,4560.00
2018-07-30T05:18:46.576Z,5980.00
2018-07-30T05:19:46.607Z,6048.00
2018-07-30T05:20:46.635Z,5320.00
2018-07-30T05:21:46.663Z,4508.00
2018-07-30T05:22:46.689Z,4556.00
2018-07-30T05:23:46.716Z,4852.00
2018-07-30T05:24:46.743Z,5508.00
2018-07-30T05:25:46.772Z,5472.00
2018-07-30T05:26:46.798Z,5892.00
2018-07-30T05:27:46.825Z,5612.00
2018-07-30T05:28:46.853Z,5196.00
2018-07-30T05:29:46.882Z,4592.00
2018-07-30T05:30:46.907Z,4120.00
2018-07-30T05:31:47.088Z,4152.00
2018-07-30T05:32:46.964Z,4292.00
2018-07-30T05:33:46.993Z,4480.00
2018-07-30T05:34:47.023Z,4700.00
2018-07-30T05:35:47.047Z,4664.00
2018-07-30T05:36:47.077Z,4744.00
2018-07-30T05:37:47.109Z,6932.00
2018-07-30T05:38:47.130Z,7392.00
2018-07-30T05:39:47.161Z,5960.00
2018-07-30T05:40:47.187Z,6580.00
2018-07-30T05:41:47.218Z,13312.00
2018-07-30T05:42:47.268Z,17568.00
2018-07-30T05:43:47.278Z,18976.00
2018-07-30T05:44:47.301Z,14252.00
2018-07-30T05:45:47.328Z,8128.00
2018-07-30T05:46:47.354Z,9784.00
2018-07-30T05:47:47.383Z,6284.00
2018-07-30T05:48:47.413Z,28960.00
2018-07-30T05:49:47.439Z,31264.00
2018-07-30T05:50:47.466Z,36288.00
2018-07-30T05:51:47.497Z,36576.00
2018-07-30T05:52:47.522Z,44064.00
2018-07-30T05:53:47.553Z,48864.00
2018-07-30T05:54:47.580Z,36352.00
2018-07-30T05:55:47.609Z,35456.00
2018-07-30T05:56:47.636Z,33312.00
2018-07-30T05:57:47.663Z,32992.00
2018-07-30T05:58:47.695Z,30816.00
2018-07-30T05:59:47.755Z,28800.00
2018-07-30T06:00:47.753Z,28960.00
2018-07-30T06:01:47.781Z,28960.00
2018-07-30T06:02:47.810Z,26432.00
2018-07-30T06:03:47.836Z,24480.00
2018-07-30T06:04:47.866Z,26464.00
2018-07-30T06:05:47.896Z,28192.00
2018-07-30T06:06:47.926Z,24160.00
2018-07-30T06:07:47.957Z,22336.00
2018-07-30T06:08:47.983Z,24128.00
2018-07-30T06:09:48.013Z,24544.00
2018-07-30T06:10:48.041Z,22048.00
2018-07-30T06:11:48.074Z,23840.00
2018-07-30T06:12:48.104Z,23776.00
2018-07-30T06:13:48.243Z,22112.00
2018-07-30T06:14:48.164Z,21760.00
2018-07-30T06:15:48.191Z,19904.00
2018-07-30T06:16:48.225Z,24192.00
2018-07-30T06:17:48.251Z,21152.00
2018-07-30T06:18:48.282Z,19904.00
2018-07-30T06:19:48.312Z,12396.00
2018-07-30T06:20:48.357Z,6428.00
2018-07-30T06:21:48.376Z,6240.00
2018-07-30T06:22:48.405Z,6312.00
2018-07-30T06:23:48.437Z,12896.00
2018-07-30T06:24:48.466Z,15072.00
2018-07-30T06:25:48.498Z,15524.00
2018-07-30T06:26:48.530Z,8076.00
2018-07-30T06:27:48.558Z,10440.00
2018-07-30T06:28:48.671Z,10604.00
2018-07-30T06:29:48.619Z,25696.00
2018-07-30T06:30:48.651Z,24768.00
2018-07-30T06:31:48.689Z,21664.00
2018-07-30T06:32:48.717Z,21632.00
2018-07-30T06:33:48.747Z,24160.00
2018-07-30T06:34:48.778Z,25504.00
2018-07-30T06:35:48.808Z,26848.00
2018-07-30T06:36:48.837Z,24992.00
2018-07-30T06:37:48.870Z,23584.00
2018-07-30T06:38:48.903Z,27072.00
2018-07-30T06:39:48.932Z,28960.00
2018-07-30T06:40:48.962Z,34176.00
2018-07-30T06:41:48.993Z,37088.00
2018-07-30T06:42:49.025Z,39072.00
2018-07-30T06:43:49.056Z,47168.00
2018-07-30T06:44:49.090Z,53344.00
2018-07-30T06:45:49.122Z,44352.00
2018-07-30T06:46:49.154Z,32544.00
2018-07-30T06:47:49.240Z,27488.00
2018-07-30T06:48:49.217Z,25952.00
2018-07-30T06:49:49.247Z,19968.00
2018-07-30T06:50:49.280Z,17824.00
2018-07-30T06:51:49.316Z,19584.00
2018-07-30T06:52:49.347Z,17440.00
2018-07-30T06:53:49.377Z,19008.00
2018-07-30T06:54:49.411Z,18112.00
2018-07-30T06:55:49.489Z,17920.00
2018-07-30T06:56:49.474Z,17952.00
2018-07-30T06:57:49.517Z,18272.00
2018-07-30T06:58:49.539Z,18624.00
2018-07-30T06:59:49.572Z,18976.00
2018-07-30T07:00:49.608Z,20640.00
2018-07-30T07:01:49.641Z,29504.00
2018-07-30T07:02:49.673Z,43520.00
2018-07-30T07:03:49.707Z,40384.00
2018-07-30T07:04:49.745Z,47776.00
2018-07-30T07:05:49.779Z,53280.00
2018-07-30T07:06:49.804Z,54464.00
2018-07-30T07:07:49.838Z,47040.00
2018-07-30T07:08:49.873Z,33408.00
2018-07-30T07:09:49.907Z,25888.00
2018-07-30T07:10:49.952Z,38720.00
2018-07-30T07:11:49.974Z,40864.00
2018-07-30T07:12:50.006Z,56896.00
2018-07-30T07:13:50.041Z,58784.00
2018-07-30T07:14:50.078Z,58688.00
2018-07-30T07:15:50.112Z,57696.00
2018-07-30T07:16:50.185Z,59808.00
2018-07-30T07:17:50.235Z,60960.00
2018-07-30T07:18:50.234Z,60992.00
2018-07-30T07:19:50.243Z,61376.00
2018-07-30T07:20:50.330Z,62432.00
2018-07-30T07:21:50.330Z,63328.00
2018-07-30T07:22:50.349Z,63136.00
2018-07-30T07:23:50.382Z,62656.00
2018-07-30T07:24:50.417Z,64064.00
2018-07-30T07:25:50.450Z,64416.00
2018-07-30T07:26:50.493Z,66624.00
2018-07-30T07:27:50.538Z,65280.00
2018-07-30T07:28:50.553Z,64288.00
2018-07-30T07:29:50.591Z,63200.00
2018-07-30T07:30:50.622Z,57184.00
2018-07-30T07:31:50.660Z,47968.00
2018-07-30T07:32:50.698Z,55584.00
2018-07-30T07:33:50.728Z,54944.00
2018-07-30T07:34:50.809Z,43936.00
2018-07-30T07:35:50.797Z,71200.00
2018-07-30T07:36:50.834Z,68288.00
2018-07-30T07:37:50.870Z,66272.00
2018-07-30T07:38:50.903Z,66464.00
2018-07-30T07:39:50.939Z,67840.00
2018-07-30T07:40:50.975Z,68832.00
2018-07-30T07:41:51.006Z,70048.00
2018-07-30T07:42:51.047Z,71040.00
2018-07-30T07:43:51.077Z,70368.00
2018-07-30T07:44:51.327Z,70176.00
2018-07-30T07:45:51.149Z,69856.00
2018-07-30T07:46:51.182Z,69472.00
2018-07-30T07:47:51.219Z,69696.00
2018-07-30T07:48:51.254Z,69184.00
2018-07-30T07:49:51.293Z,70720.00
2018-07-30T07:50:51.606Z,71904.00
2018-07-30T07:51:51.362Z,72288.00
2018-07-30T07:52:51.394Z,71200.00
2018-07-30T07:53:51.434Z,72032.00
2018-07-30T07:54:51.468Z,73472.00
2018-07-30T07:55:51.507Z,72800.00
2018-07-30T07:56:51.541Z,73600.00
2018-07-30T07:58:54.238Z,48032.00
2018-07-30T07:59:51.654Z,56288.00
2018-07-30T08:00:55.331Z,75264.00
2018-07-30T08:01:51.733Z,75584.00
2018-07-30T08:02:52.086Z,77216.00
2018-07-30T08:03:51.867Z,77056.00
2018-07-30T08:04:51.842Z,77472.00
2018-07-30T08:05:51.879Z,77312.00
2018-07-30T08:06:51.916Z,76416.00
2018-07-30T08:07:51.952Z,77248.00
2018-07-30T08:08:51.985Z,81504.00
2018-07-30T08:09:52.147Z,75296.00
2018-07-30T08:10:52.097Z,46208.00
2018-07-30T08:11:52.095Z,44416.00
2018-07-30T08:12:52.129Z,48480.00
2018-07-30T08:13:52.166Z,36448.00
2018-07-30T08:14:52.202Z,40288.00
2018-07-30T08:15:52.239Z,58944.00
2018-07-30T08:16:52.275Z,46880.00
2018-07-30T08:17:52.313Z,39488.00
2018-07-30T08:18:52.349Z,24544.00
2018-07-30T08:19:52.383Z,35072.00
2018-07-30T08:20:52.424Z,47424.00
2018-07-30T08:21:52.458Z,81568.00
2018-07-30T08:22:52.490Z,80832.00
2018-07-30T08:23:52.528Z,83264.00
2018-07-30T08:24:52.565Z,81856.00
2018-07-30T08:25:52.599Z,79776.00
2018-07-30T08:26:52.633Z,80832.00
2018-07-30T08:27:52.672Z,81824.00
2018-07-30T08:28:52.708Z,80032.00
2018-07-30T08:29:52.740Z,79296.00
2018-07-30T08:30:54.202Z,76000.00
2018-07-30T08:31:52.813Z,73152.00
2018-07-30T08:32:52.908Z,76864.00
2018-07-30T08:33:52.885Z,83648.00
2018-07-30T08:34:52.925Z,81632.00
2018-07-30T08:35:52.963Z,62080.00
2018-07-30T08:36:52.995Z,48704.00
2018-07-30T08:37:53.030Z,48544.00
2018-07-30T08:38:53.067Z,44800.00
2018-07-30T08:39:53.105Z,87424.00
2018-07-30T08:40:53.140Z,46304.00
2018-07-30T08:41:53.231Z,74144.00
2018-07-30T08:42:53.265Z,75424.00
2018-07-30T08:43:53.248Z,49024.00
2018-07-30T08:44:53.285Z,37856.00
2018-07-30T08:45:53.320Z,38560.00
2018-07-30T08:46:53.358Z,41440.00
2018-07-30T08:47:53.393Z,36640.00
2018-07-30T08:48:53.447Z,35616.00
2018-07-30T08:49:53.466Z,35808.00
2018-07-30T08:50:53.503Z,39680.00
2018-07-30T08:51:53.539Z,34720.00
2018-07-30T08:52:53.574Z,35296.00
2018-07-30T08:53:53.631Z,53376.00
2018-07-30T08:54:53.645Z,32224.00
2018-07-30T08:55:53.681Z,34912.00
2018-07-30T08:56:53.717Z,70752.00
2018-07-30T08:57:53.754Z,71776.00
2018-07-30T08:58:53.783Z,90720.00
2018-07-30T08:59:53.822Z,71200.00
2018-07-30T09:00:53.858Z,56800.00
2018-07-30T09:01:53.893Z,92576.00
2018-07-30T09:02:53.925Z,95008.00
2018-07-30T09:03:53.964Z,65920.00
2018-07-30T09:04:53.996Z,47328.00
2018-07-30T09:05:54.030Z,39360.00
2018-07-30T09:06:54.066Z,33984.00
2018-07-30T09:07:54.103Z,37312.00
2018-07-30T09:08:54.139Z,67584.00
2018-07-30T09:09:54.173Z,87040.00
2018-07-30T09:10:54.208Z,45792.00
2018-07-30T09:11:54.243Z,43904.00
2018-07-30T09:12:54.402Z,51648.00
2018-07-30T09:13:54.318Z,86336.00
2018-07-30T09:14:54.347Z,42400.00
2018-07-30T09:15:54.387Z,32640.00
2018-07-30T09:16:54.420Z,33248.00
2018-07-30T09:17:54.455Z,47232.00
2018-07-30T09:18:54.489Z,69152.00
2018-07-30T09:19:54.527Z,87136.00
2018-07-30T09:20:54.563Z,90656.00
2018-07-30T09:21:54.597Z,83424.00
2018-07-30T09:22:54.634Z,48512.00
2018-07-30T09:23:54.666Z,65184.00
2018-07-30T09:24:54.702Z,92576.00
2018-07-30T09:25:54.738Z,93216.00
2018-07-30T09:26:54.803Z,92000.00
2018-07-30T09:27:54.857Z,88320.00
2018-07-30T09:28:54.844Z,89184.00
2018-07-30T09:29:54.890Z,91264.00
2018-07-30T09:30:54.918Z,85856.00
2018-07-30T09:31:54.955Z,84992.00
2018-07-30T09:32:55.135Z,88000.00
2018-07-30T09:33:55.023Z,88384.00
2018-07-30T09:34:55.062Z,86240.00
2018-07-30T09:35:55.095Z,84832.00
2018-07-30T09:36:55.133Z,86464.00
2018-07-30T09:37:55.167Z,84416.00
2018-07-30T09:38:55.204Z,88736.00
2018-07-30T09:39:55.240Z,86752.00
2018-07-30T09:40:55.280Z,87168.00
2018-07-30T09:41:55.313Z,86432.00
2018-07-30T09:42:55.352Z,84192.00
2018-07-30T09:43:55.389Z,84928.00
2018-07-30T09:44:55.527Z,87232.00
2018-07-30T09:45:55.462Z,87296.00
2018-07-30T09:46:55.496Z,85536.00
2018-07-30T09:47:55.533Z,86432.00
2018-07-30T09:48:55.569Z,85120.00
2018-07-30T09:49:55.606Z,83136.00
2018-07-30T09:50:55.644Z,83424.00
2018-07-30T09:51:55.681Z,82944.00
2018-07-30T09:52:55.716Z,83104.00
2018-07-30T09:53:55.752Z,81536.00
2018-07-30T09:54:55.791Z,78816.00
2018-07-30T09:55:55.826Z,80416.00
2018-07-30T09:56:55.862Z,81280.00
2018-07-30T09:57:55.901Z,81952.00
2018-07-30T09:58:55.936Z,82592.00
2018-07-30T09:59:55.971Z,80928.00
2018-07-30T10:00:56.013Z,79328.00
2018-07-30T10:01:56.048Z,81504.00
2018-07-30T10:02:56.081Z,83200.00
2018-07-30T10:03:56.118Z,81920.00
2018-07-30T10:04:56.156Z,83168.00
2018-07-30T10:05:56.194Z,82976.00
2018-07-30T10:06:56.228Z,80256.00
2018-07-30T10:07:56.266Z,80096.00
2018-07-30T10:08:56.303Z,81472.00
2018-07-30T10:09:56.340Z,81120.00
2018-07-30T10:10:56.379Z,81152.00
2018-07-30T10:11:56.416Z,81280.00
2018-07-30T10:12:56.453Z,80064.00
2018-07-30T10:13:56.488Z,77312.00
2018-07-30T10:14:56.530Z,79008.00
2018-07-30T10:15:56.564Z,78912.00
2018-07-30T10:16:56.601Z,77440.00
2018-07-30T10:17:56.688Z,77920.00
2018-07-30T10:18:56.676Z,58208.00
2018-07-30T10:19:56.712Z,78464.00
2018-07-30T10:20:56.747Z,76288.00
2018-07-30T10:21:56.786Z,69952.00
2018-07-30T10:22:56.824Z,74976.00
2018-07-30T10:23:56.862Z,52672.00
2018-07-30T10:24:56.898Z,60256.00
2018-07-30T10:25:56.936Z,71936.00
2018-07-30T10:26:56.972Z,74368.00
2018-07-30T10:27:57.008Z,78944.00
2018-07-30T10:28:57.050Z,81280.00
2018-07-30T10:29:57.089Z,81600.00
2018-07-30T10:30:57.123Z,79936.00
2018-07-30T10:31:57.157Z,81056.00
2018-07-30T10:32:57.223Z,77696.00
2018-07-30T10:33:57.230Z,71680.00
2018-07-30T10:34:57.274Z,71136.00
2018-07-30T10:35:57.308Z,74528.00
2018-07-30T10:36:57.343Z,75168.00
2018-07-30T10:37:57.462Z,75616.00
2018-07-30T10:38:57.420Z,74976.00
2018-07-30T10:39:57.497Z,74816.00
2018-07-30T10:40:57.495Z,75840.00
2018-07-30T10:41:57.532Z,81376.00
2018-07-30T10:42:57.566Z,29248.00
2018-07-30T10:43:57.605Z,12548.00
2018-07-30T10:44:57.643Z,11532.00
2018-07-30T10:45:57.678Z,15628.00
2018-07-30T10:46:57.745Z,51904.00
2018-07-30T10:47:57.751Z,71264.00
2018-07-30T10:48:57.792Z,47776.00
2018-07-30T10:49:57.830Z,34976.00
2018-07-30T10:50:57.862Z,29984.00
2018-07-30T10:51:57.947Z,70752.00
2018-07-30T10:52:57.939Z,49536.00
2018-07-30T10:53:57.975Z,21920.00
2018-07-30T10:54:58.012Z,51776.00
2018-07-30T10:55:58.049Z,33696.00
2018-07-30T10:56:58.084Z,75360.00
2018-07-30T10:57:58.119Z,40416.00
2018-07-30T10:58:58.158Z,23232.00
2018-07-30T10:59:58.195Z,17280.00
2018-07-30T11:00:58.252Z,38624.00
2018-07-30T11:01:58.264Z,15392.00
2018-07-30T11:02:58.304Z,13604.00
2018-07-30T11:03:58.339Z,15228.00
2018-07-30T11:04:58.377Z,15728.00
2018-07-30T11:05:58.408Z,15220.00
2018-07-30T11:06:58.446Z,15880.00
2018-07-30T11:07:58.490Z,19648.00
2018-07-30T11:08:58.519Z,22080.00
2018-07-30T11:09:58.554Z,57024.00
2018-07-30T11:10:58.589Z,88928.00
2018-07-30T11:11:58.622Z,87104.00
2018-07-30T11:12:58.660Z,84896.00
2018-07-30T11:13:58.696Z,82272.00
2018-07-30T11:14:58.728Z,78688.00
2018-07-30T11:15:58.768Z,79264.00
2018-07-30T11:16:58.802Z,76928.00
2018-07-30T11:17:58.837Z,75584.00
2018-07-30T11:18:58.873Z,70464.00
2018-07-30T11:19:58.905Z,70784.00
2018-07-30T11:20:58.943Z,72256.00
2018-07-30T11:21:58.978Z,56224.00
2018-07-30T11:22:59.013Z,38016.00
2018-07-30T11:23:59.049Z,42208.00
2018-07-30T11:24:59.088Z,69504.00
2018-07-30T11:25:59.123Z,71808.00
2018-07-30T11:26:59.159Z,71008.00
2018-07-30T11:27:59.325Z,69312.00
2018-07-30T11:28:59.229Z,67712.00
2018-07-30T11:29:59.266Z,67072.00
2018-07-30T11:30:59.301Z,66272.00
2018-07-30T11:31:59.340Z,67136.00
2018-07-30T11:32:59.378Z,70304.00
2018-07-30T11:33:59.412Z,72512.00
2018-07-30T11:34:59.500Z,72960.00
2018-07-30T11:35:59.487Z,79744.00
2018-07-30T11:36:59.526Z,86304.00
2018-07-30T11:37:59.556Z,68608.00
2018-07-30T11:38:59.594Z,36352.00
2018-07-30T11:39:59.633Z,22144.00
2018-07-30T11:40:59.670Z,21632.00
2018-07-30T11:41:59.705Z,21728.00
2018-07-30T11:42:59.754Z,21824.00
2018-07-30T11:43:59.778Z,21440.00
2018-07-30T11:44:59.817Z,21184.00
2018-07-30T11:45:59.854Z,21664.00
2018-07-30T11:46:59.892Z,22368.00
2018-07-30T11:47:59.926Z,22656.00
2018-07-30T11:48:59.965Z,23008.00
2018-07-30T11:49:59.999Z,20768.00
2018-07-30T11:51:00.037Z,20000.00
2018-07-30T11:52:00.079Z,22272.00
2018-07-30T11:53:00.169Z,22400.00
2018-07-30T11:54:00.171Z,19520.00
2018-07-30T11:55:00.185Z,20032.00
2018-07-30T11:56:00.226Z,22816.00
2018-07-30T11:57:00.264Z,22496.00
2018-07-30T11:58:00.297Z,22624.00
2018-07-30T11:59:00.337Z,22272.00
2018-07-30T12:00:00.372Z,22048.00
2018-07-30T12:01:00.482Z,21824.00
2018-07-30T12:02:00.449Z,21376.00
2018-07-30T12:03:00.485Z,20992.00
2018-07-30T12:04:00.519Z,20960.00
2018-07-30T12:05:00.557Z,20480.00
2018-07-30T12:06:00.595Z,20320.00
2018-07-30T12:07:00.631Z,20224.00
2018-07-30T12:08:00.673Z,19904.00
2018-07-30T12:09:00.705Z,15560.00
2018-07-30T12:10:00.742Z,12940.00
2018-07-30T12:11:00.782Z,14928.00
2018-07-30T12:12:00.818Z,13020.00
2018-07-30T12:13:00.857Z,13212.00
2018-07-30T12:14:00.893Z,12560.00
2018-07-30T12:15:00.927Z,13056.00
2018-07-30T12:16:00.964Z,14904.00